Time;durP1;ratioP1;P1;durP2;ratioP2;P2;SDS_P1;SDS_P2;PMS_P1;PMS_P2;Temp;Humidity;BMP_temperature;BMP_pressure;BME280_temperature;BME280_humidity;BME280_pressure;Samples;Min_cycle;Max_cycle;Signal;HPM_P1;HPM_P2
2022/09/18 00:00:19;;;;;;;5.40;2.95;;;;;;;12.58;71.52;100133.97;5112567;28;20044;-57
2022/09/18 00:02:48;;;;;;;5.95;3.40;;;;;;;12.65;71.78;100127.03;5110460;28;20052;-59
2022/09/18 00:05:19;;;;;;;7.55;4.47;;;;;;;12.68;71.22;100135.56;5111970;28;20048;-58
2022/09/18 00:07:46;;;;;;;10.85;4.40;;;;;;;12.68;71.24;100134.72;5112738;28;20079;-58
2022/09/18 00:10:13;;;;;;;6.65;4.80;;;;;;;12.70;71.26;100129.59;5112558;28;20047;-58
2022/09/18 00:12:41;;;;;;;13.88;7.28;;;;;;;12.62;71.64;100130.47;5112490;28;20044;-58
2022/09/18 00:15:08;;;;;;;13.65;7.10;;;;;;;12.74;71.77;100119.41;5103935;28;20074;-58
2022/09/18 00:17:37;;;;;;;9.13;5.80;;;;;;;12.69;71.93;100128.00;5095390;28;20059;-58
2022/09/18 00:20:06;;;;;;;11.50;7.40;;;;;;;12.70;71.60;100122.03;5095850;28;20052;-59
2022/09/18 00:22:33;;;;;;;9.55;6.78;;;;;;;12.79;72.05;100128.41;5096080;28;20469;-58
2022/09/18 00:25:04;;;;;;;12.23;8.05;;;;;;;12.94;71.26;100129.00;5096367;28;20048;-59
2022/09/18 00:27:34;;;;;;;11.68;7.65;;;;;;;13.02;70.85;100130.91;5095926;28;20056;-59
2022/09/18 00:30:02;;;;;;;11.75;8.10;;;;;;;13.00;70.87;100134.03;5095684;28;20056;-59
2022/09/18 00:32:29;;;;;;;15.00;9.82;;;;;;;12.95;70.66;100128.63;5094490;28;20290;-59
2022/09/18 00:34:58;;;;;;;12.55;9.82;;;;;;;13.05;71.38;100129.41;5106866;27;20058;-58
2022/09/18 00:37:25;;;;;;;15.07;10.93;;;;;;;13.08;70.33;100142.69;5116244;28;20059;-59
2022/09/18 00:39:52;;;;;;;13.90;9.85;;;;;;;13.14;70.99;100121.75;5116360;28;20055;-59
2022/09/18 00:42:20;;;;;;;15.00;11.05;;;;;;;13.05;70.69;100127.41;5115956;28;20484;-58
2022/09/18 00:44:48;;;;;;;11.55;9.55;;;;;;;13.02;71.32;100136.50;5114163;28;20082;-58
2022/09/18 00:47:22;;;;;;;11.65;9.68;;;;;;;13.11;71.57;100133.66;5115822;28;20055;-59
2022/09/18 00:49:53;;;;;;;10.60;8.75;;;;;;;13.15;70.82;100131.81;5115971;28;20054;-59
2022/09/18 00:52:26;;;;;;;10.70;9.20;;;;;;;13.14;70.27;100128.16;5115723;28;20047;-59
2022/09/18 00:54:58;;;;;;;9.73;8.25;;;;;;;13.20;71.46;100126.00;5115406;28;20056;-59
2022/09/18 00:57:31;;;;;;;10.77;7.70;;;;;;;13.30;70.42;100124.81;5115681;28;20389;-59
2022/09/18 01:08:07;;;;;;;;;;;;;;;;;;;;;
2022/09/18 01:27:38;;;;;;;;;;;;;;;;;;;;;
2022/09/18 02:21:18;;;;;;;12.13;8.52;;;;;;;13.34;69.93;100100.59;5099966;28;20039;-62
2022/09/18 02:27:52;;;;;;;12.00;9.32;;;;;;;13.13;71.79;100104.19;5031834;28;20430;-63
2022/09/18 02:30:21;;;;;;;12.95;9.32;;;;;;;13.26;71.49;100095.84;5033216;28;20053;-61
2022/09/18 03:08:23;;;;;;;12.65;9.30;;;;;;;13.47;71.04;100085.47;5016523;28;20150;-62
2022/09/18 03:11:50;;;;;;;;;;;;;;;;;;;;;
2022/09/18 03:18:29;;;;;;;13.10;8.93;;;;;;;13.34;70.76;100083.81;5056408;28;20059;-62
2022/09/18 03:29:54;;;;;;;10.68;8.48;;;;;;;13.33;70.54;100069.00;5113340;27;20059;-62
2022/09/18 03:32:22;;;;;;;11.48;9.13;;;;;;;13.30;70.82;100072.47;5109655;28;20059;-62
2022/09/18 03:34:49;;;;;;;13.32;8.68;;;;;;;13.31;70.65;100076.94;5112619;28;20056;-62
2022/09/18 03:37:17;;;;;;;14.73;9.88;;;;;;;13.26;71.09;100070.69;5112768;28;20055;-62
2022/09/18 03:39:44;;;;;;;13.45;9.15;;;;;;;13.34;70.89;100062.25;5112371;28;20389;-62
2022/09/18 03:42:11;;;;;;;13.35;8.88;;;;;;;13.43;71.61;100069.75;5112497;28;20048;-63
2022/09/18 03:44:39;;;;;;;10.55;8.68;;;;;;;13.39;70.89;100067.59;5112544;28;20054;-62
2022/09/18 03:47:08;;;;;;;14.02;8.70;;;;;;;13.43;71.29;100075.34;5111604;28;20056;-62
2022/09/18 03:49:36;;;;;;;13.93;8.57;;;;;;;13.40;71.43;100072.06;5112326;28;20067;-62
2022/09/18 03:52:03;;;;;;;13.80;8.70;;;;;;;13.48;71.32;100073.16;5112482;28;20460;-62
2022/09/18 03:54:30;;;;;;;10.63;7.90;;;;;;;13.48;72.50;100064.75;5110919;28;20070;-62
2022/09/18 03:56:58;;;;;;;11.68;7.93;;;;;;;13.48;72.43;100073.16;5112682;28;20064;-62
2022/09/18 03:59:25;;;;;;;13.48;8.65;;;;;;;13.59;71.88;100073.53;5112464;28;20059;-62
2022/09/18 04:01:52;;;;;;;10.98;7.72;;;;;;;13.54;71.37;100070.94;5112614;28;20368;-62
2022/09/18 04:04:21;;;;;;;9.07;7.03;;;;;;;13.55;71.40;100070.59;5100866;28;20060;-62
2022/09/18 04:06:48;;;;;;;10.02;7.28;;;;;;;13.56;71.80;100063.00;5091823;28;20056;-62
2022/09/18 04:09:16;;;;;;;9.25;7.65;;;;;;;13.44;72.18;100069.41;5092160;28;20079;-62
2022/09/18 04:11:43;;;;;;;9.73;6.85;;;;;;;13.48;72.42;100058.31;5091806;28;20048;-62
2022/09/18 04:14:10;;;;;;;12.35;7.07;;;;;;;13.46;73.71;100075.47;5093585;28;20067;-62
2022/09/18 04:16:38;;;;;;;11.70;7.50;;;;;;;13.40;74.02;100068.44;5111861;28;20484;-61
2022/09/18 04:19:05;;;;;;;12.85;7.95;;;;;;;13.36;73.64;100059.91;5110345;28;20059;-61
2022/09/18 04:21:34;;;;;;;9.55;6.78;;;;;;;13.40;73.71;100074.84;5111838;28;20051;-61
2022/09/18 04:24:01;;;;;;;11.48;7.07;;;;;;;13.37;74.46;100064.34;5112287;28;20063;-61
2022/09/18 04:26:29;;;;;;;9.98;7.18;;;;;;;13.38;74.80;100057.59;5111838;28;20060;-61
2022/09/18 04:28:56;;;;;;;14.55;8.32;;;;;;;13.36;74.70;100065.50;5111927;28;20055;-61
2022/09/18 04:31:23;;;;;;;12.07;8.45;;;;;;;13.36;74.67;100056.31;5112111;28;20059;-61
2022/09/18 04:33:50;;;;;;;9.95;7.70;;;;;;;13.29;75.60;100054.06;5110607;28;20060;-61
2022/09/18 04:36:18;;;;;;;9.88;7.38;;;;;;;13.31;75.42;100050.91;5111860;28;20059;-60
2022/09/18 04:38:46;;;;;;;14.77;8.25;;;;;;;13.29;74.74;100056.03;5112516;28;20419;-61
2022/09/18 04:41:14;;;;;;;11.60;7.57;;;;;;;13.33;74.79;100051.38;5111937;28;20062;-60
2022/09/18 04:43:42;;;;;;;12.95;8.05;;;;;;;13.33;74.60;100049.44;5111401;28;20515;-61
2022/09/18 04:46:09;;;;;;;10.68;6.90;;;;;;;13.31;74.27;100046.16;5111970;28;20078;-61
2022/09/18 04:48:36;;;;;;;11.27;7.18;;;;;;;13.15;74.77;100051.53;5093664;28;20056;-60
2022/09/18 04:51:04;;;;;;;12.48;7.05;;;;;;;13.21;74.29;100060.53;5091567;28;20070;-61
2022/09/18 04:53:34;;;;;;;7.93;6.30;;;;;;;13.22;73.73;100062.16;5096380;28;20055;-60
2022/09/18 04:56:02;;;;;;;9.40;6.22;;;;;;;13.19;74.96;100060.06;5111506;28;20500;-60
2022/09/18 04:58:30;;;;;;;10.35;7.03;;;;;;;13.05;75.38;100043.53;5108667;28;20060;-61
2022/09/18 05:00:57;;;;;;;10.07;6.78;;;;;;;12.94;74.90;100051.53;5111764;28;20423;-61
2022/09/18 05:03:24;;;;;;;10.32;6.90;;;;;;;13.01;75.49;100050.97;5114568;28;20066;-61
2022/09/18 05:05:53;;;;;;;8.63;6.28;;;;;;;12.97;75.53;100056.41;5115543;28;20062;-60
2022/09/18 05:08:21;;;;;;;8.85;6.15;;;;;;;13.00;76.08;100049.34;5115471;28;20052;-60
2022/09/18 05:10:48;;;;;;;8.82;6.68;;;;;;;13.06;74.96;100063.91;5113945;28;20491;-60
2022/09/18 05:13:17;;;;;;;8.35;6.30;;;;;;;13.05;75.21;100060.31;5112965;28;20055;-61
2022/09/18 05:15:44;;;;;;;8.07;5.53;;;;;;;13.04;75.44;100058.69;5113356;28;20055;-60
2022/09/18 05:18:12;;;;;;;8.20;5.82;;;;;;;13.07;75.04;100054.41;5113431;28;20063;-60
2022/09/18 05:20:40;;;;;;;7.80;5.43;;;;;;;13.11;75.96;100047.78;5114701;28;20066;-60
2022/09/18 05:23:07;;;;;;;8.88;6.05;;;;;;;13.12;75.19;100063.41;5115173;28;20420;-61
2022/09/18 05:25:34;;;;;;;8.45;5.35;;;;;;;13.14;74.63;100060.25;5114944;28;20059;-60
2022/09/18 05:28:03;;;;;;;7.18;5.45;;;;;;;13.11;75.42;100058.13;5108696;28;20062;-60
2022/09/18 05:30:32;;;;;;;7.40;4.70;;;;;;;13.02;74.72;100086.19;5094653;28;20082;-61
2022/09/18 05:33:01;;;;;;;8.23;4.82;;;;;;;13.12;74.66;100076.53;5096971;28;20074;-60
2022/09/18 05:35:29;;;;;;;7.18;4.72;;;;;;;13.19;74.43;100079.63;5115161;28;20066;-61
2022/09/18 05:37:56;;;;;;;7.15;4.75;;;;;;;13.12;75.11;100073.75;5115547;28;20499;-60
2022/09/18 05:40:26;;;;;;;6.35;4.45;;;;;;;13.13;73.97;100075.41;5114981;28;20522;-61
2022/09/18 05:42:53;;;;;;;6.57;4.55;;;;;;;13.15;73.78;100076.69;5113772;28;20049;-60
2022/09/18 05:45:21;;;;;;;6.47;4.20;;;;;;;13.17;73.21;100077.16;5113126;28;20056;-61
2022/09/18 05:47:57;;;;;;;6.70;3.92;;;;;;;13.19;73.81;100072.03;5114871;28;20097;-62
2022/09/18 05:50:25;;;;;;;9.68;4.22;;;;;;;13.15;73.31;100073.06;5114439;28;20056;-63
2022/09/18 05:53:03;;;;;;;5.40;3.47;;;;;;;13.11;73.61;100067.34;5111834;28;20388;-63
2022/09/18 05:55:30;;;;;;;6.60;3.95;;;;;;;13.15;73.29;100079.47;5094163;28;20067;-63
2022/09/18 05:57:59;;;;;;;5.55;3.22;;;;;;;13.24;73.65;100082.19;5094321;28;20528;-60
2022/09/18 06:00:28;;;;;;;8.02;3.70;;;;;;;13.25;73.77;100080.22;5094121;28;20060;-62
2022/09/18 06:02:59;;;;;;;7.28;3.75;;;;;;;13.29;73.62;100073.66;5094489;28;20052;-61
2022/09/18 06:05:27;;;;;;;6.97;3.47;;;;;;;13.25;74.20;100078.25;5093862;28;20052;-62
2022/09/18 06:07:54;;;;;;;6.85;4.00;;;;;;;13.37;73.49;100085.91;5093468;28;20060;-62
2022/09/18 06:10:22;;;;;;;6.18;3.65;;;;;;;13.34;72.77;100079.03;5108437;28;20062;-62
2022/09/18 06:12:49;;;;;;;6.38;3.33;;;;;;;13.38;72.92;100079.97;5113938;28;20052;-63
2022/09/18 06:15:17;;;;;;;6.97;3.45;;;;;;;13.45;72.46;100078.59;5114102;28;20059;-62
2022/09/18 06:17:51;;;;;;;9.80;3.92;;;;;;;13.51;73.01;100080.03;5114246;28;20096;-62
2022/09/18 06:20:20;;;;;;;6.78;3.58;;;;;;;13.57;71.54;100085.06;5113755;28;20056;-62
2022/09/18 06:22:47;;;;;;;7.03;3.28;;;;;;;13.52;72.02;100081.66;5114169;28;20055;-62
2022/09/18 06:25:18;;;;;;;4.05;2.78;;;;;;;13.59;71.44;100081.94;5097600;28;20063;-62
2022/09/18 06:27:45;;;;;;;5.47;3.53;;;;;;;13.54;72.39;100070.94;5093625;28;20056;-62
2022/09/18 06:30:13;;;;;;;5.00;3.08;;;;;;;13.66;71.39;100067.38;5102313;28;20047;-62
2022/09/18 06:32:40;;;;;;;8.10;3.72;;;;;;;13.59;71.52;100077.16;5113755;28;20051;-62
2022/09/18 06:35:09;;;;;;;6.30;3.63;;;;;;;13.67;72.59;100078.22;5113567;28;20052;-62
2022/09/18 06:37:38;;;;;;;6.25;3.33;;;;;;;13.67;72.85;100072.63;5113994;28;20074;-62
2022/09/18 06:40:06;;;;;;;5.35;3.38;;;;;;;13.70;72.72;100069.13;5113208;28;20511;-61
2022/09/18 06:42:33;;;;;;;8.02;4.00;;;;;;;13.73;72.42;100071.25;5092905;28;20060;-62
2022/09/18 06:45:00;;;;;;;4.55;2.92;;;;;;;13.67;72.19;100074.59;5092472;28;20056;-62
2022/09/18 06:47:28;;;;;;;6.85;3.97;;;;;;;13.67;71.88;100072.63;5093018;28;20408;-62
2022/09/18 06:49:55;;;;;;;7.10;4.20;;;;;;;13.66;71.31;100070.97;5093205;28;20056;-62
2022/09/18 06:52:22;;;;;;;6.97;4.90;;;;;;;13.62;73.21;100080.41;5092522;28;20059;-61
2022/09/18 06:54:51;;;;;;;7.13;5.10;;;;;;;13.63;73.03;100090.44;5093189;28;20412;-62
2022/09/18 06:57:18;;;;;;;6.40;4.82;;;;;;;13.75;72.09;100084.88;5093003;28;20412;-62
2022/09/18 06:59:45;;;;;;;8.77;5.40;;;;;;;13.85;72.23;100094.81;5092301;28;20048;-62
2022/09/18 07:02:14;;;;;;;9.90;5.22;;;;;;;13.90;72.72;100091.78;5092957;28;20064;-62
2022/09/18 07:04:41;;;;;;;8.02;5.75;;;;;;;13.97;71.51;100081.69;5092704;28;20048;-62
2022/09/18 07:07:08;;;;;;;6.65;5.35;;;;;;;13.97;71.54;100086.47;5092954;28;20083;-62
2022/09/18 07:09:36;;;;;;;5.80;4.90;;;;;;;13.98;72.05;100088.09;5092840;28;20052;-62
2022/09/18 07:12:05;;;;;;;9.85;5.82;;;;;;;14.06;71.14;100084.38;5092915;28;20063;-62
2022/09/18 07:14:32;;;;;;;8.30;6.05;;;;;;;14.03;71.16;100087.88;5099222;28;20055;-62
2022/09/18 07:16:59;;;;;;;7.47;5.68;;;;;;;14.04;72.48;100083.91;5113457;28;20395;-62
2022/09/18 07:19:26;;;;;;;7.75;5.53;;;;;;;14.08;72.03;100086.84;5113244;28;20066;-62
2022/09/18 07:21:53;;;;;;;8.07;5.70;;;;;;;14.16;72.06;100078.31;5113166;28;20063;-61
2022/09/18 07:24:21;;;;;;;6.82;5.88;;;;;;;14.16;71.43;100075.53;5112421;28;20054;-61
2022/09/18 07:26:48;;;;;;;6.75;4.75;;;;;;;14.24;71.53;100081.34;5112879;28;20051;-61
2022/09/18 07:29:16;;;;;;;7.97;5.60;;;;;;;14.17;70.91;100079.13;5099423;28;20058;-61
2022/09/18 07:31:44;;;;;;;8.55;5.78;;;;;;;14.23;71.19;100074.94;5109344;28;20059;-61
2022/09/18 07:34:11;;;;;;;6.53;5.80;;;;;;;14.17;71.90;100077.16;5112809;28;20051;-61
2022/09/18 07:36:39;;;;;;;10.20;6.00;;;;;;;14.22;71.54;100081.72;5112791;28;20055;-61
2022/09/18 07:39:06;;;;;;;9.52;6.30;;;;;;;14.14;71.59;100077.84;5112567;28;20062;-61
2022/09/18 07:41:36;;;;;;;8.38;6.05;;;;;;;14.01;72.75;100076.22;5112618;28;20055;-62
2022/09/18 07:44:07;;;;;;;8.25;6.20;;;;;;;14.07;72.79;100076.78;5112685;28;20051;-61
2022/09/18 07:46:37;;;;;;;7.80;6.22;;;;;;;14.09;73.05;100075.28;5108641;28;20063;-60
2022/09/18 07:49:04;;;;;;;8.40;6.93;;;;;;;14.08;72.77;100068.03;5098511;28;20063;-63
2022/09/18 07:51:32;;;;;;;37.88;9.85;;;;;;;13.91;77.20;100080.25;5112350;28;20059;-62
2022/09/18 07:53:59;;;;;;;13.32;9.35;;;;;;;13.45;82.20;100070.22;5112481;28;20526;-61
2022/09/18 07:56:26;;;;;;;21.08;13.32;;;;;;;13.49;82.64;100076.75;5112442;28;20051;-62
2022/09/18 07:58:53;;;;;;;21.42;11.32;;;;;;;13.47;81.31;100082.69;5104534;28;20051;-61
2022/09/18 08:01:21;;;;;;;11.88;8.95;;;;;;;13.45;81.77;100070.22;5111188;28;20055;-61
2022/09/18 08:03:49;;;;;;;15.25;10.27;;;;;;;13.39;83.78;100069.59;5091685;28;20424;-61
2022/09/18 08:06:17;;;;;;;31.63;13.95;;;;;;;13.47;83.79;100070.69;5090573;28;20058;-61
2022/09/18 08:08:44;;;;;;;15.05;10.32;;;;;;;13.40;82.57;100069.25;5091316;28;20048;-62
2022/09/18 08:11:11;;;;;;;13.95;9.90;;;;;;;13.53;83.29;100072.09;5092347;28;20067;-61
2022/09/18 08:13:39;;;;;;;11.27;7.93;;;;;;;13.58;82.27;100074.69;5104164;28;20051;-62
2022/09/18 08:16:08;;;;;;;13.93;10.45;;;;;;;13.65;82.50;100060.97;5098250;28;20420;-61
2022/09/18 08:18:38;;;;;;;8.93;6.60;;;;;;;13.79;80.49;100069.03;5103207;28;20432;-61
2022/09/18 08:21:07;;;;;;;7.85;6.95;;;;;;;13.89;79.43;100068.59;5100572;28;20056;-62
2022/09/18 08:23:37;;;;;;;9.75;6.90;;;;;;;14.02;79.37;100061.03;5100994;28;20052;-62
2022/09/18 08:26:05;;;;;;;8.85;6.47;;;;;;;14.05;79.13;100065.94;5104770;28;20063;-62
2022/09/18 08:28:32;;;;;;;6.63;5.10;;;;;;;14.01;78.33;100059.41;5111134;27;20073;-61
2022/09/18 08:31:00;;;;;;;6.15;5.55;;;;;;;14.09;78.41;100066.88;5151929;27;20055;-62
2022/09/18 08:33:27;;;;;;;7.20;4.85;;;;;;;14.09;77.50;100066.03;5137813;27;20054;-62
2022/09/18 08:35:56;;;;;;;6.28;4.70;;;;;;;14.06;77.02;100073.16;5150153;27;20058;-62
2022/09/18 08:38:25;;;;;;;7.57;4.68;;;;;;;14.16;76.75;100075.53;5144756;27;20055;-62
2022/09/18 08:41:15;;;;;;;6.60;4.72;;;;;;;14.19;77.18;100079.59;5144717;27;20055;-62
2022/09/18 08:43:59;;;;;;;5.80;3.70;;;;;;;14.20;75.66;100073.66;5152106;27;20070;-62
2022/09/18 08:46:33;;;;;;;4.38;3.13;;;;;;;14.26;74.26;100084.63;5137927;27;20372;-61
2022/09/18 08:49:10;;;;;;;3.90;2.85;;;;;;;14.29;74.79;100081.13;5147852;27;20055;-62
2022/09/18 08:51:44;;;;;;;5.15;2.85;;;;;;;14.34;73.40;100083.69;5142852;27;20055;-60
2022/09/18 08:54:22;;;;;;;2.70;1.90;;;;;;;14.28;73.71;100077.53;5146249;27;20069;-61
2022/09/18 08:56:52;;;;;;;3.35;2.10;;;;;;;14.33;73.41;100073.66;5152809;27;20470;-62
2022/09/18 08:59:33;;;;;;;2.90;1.60;;;;;;;14.34;72.41;100078.09;5151678;27;22119;-62
2022/09/18 09:02:15;;;;;;;3.10;1.92;;;;;;;14.39;73.01;100081.47;5137892;27;20051;-61
2022/09/18 09:04:43;;;;;;;3.58;1.80;;;;;;;14.24;72.90;100073.78;5146265;27;20058;-62
2022/09/18 09:07:27;;;;;;;3.70;1.80;;;;;;;14.22;72.19;100073.31;5150017;27;20059;-61
2022/09/18 09:10:12;;;;;;;3.58;1.75;;;;;;;14.23;72.06;100071.31;5150162;27;20056;-62
2022/09/18 09:12:54;;;;;;;2.08;1.33;;;;;;;14.17;73.31;100071.56;5149719;27;20059;-62
2022/09/18 09:15:33;;;;;;;2.95;1.48;;;;;;;14.09;72.77;100064.09;5150377;27;20055;-62
2022/09/18 09:18:04;;;;;;;;;;;;;;;14.07;73.78;100066.41;5149590;27;20054;-62
2022/09/18 09:20:45;;;;;;;6.00;2.38;;;;;;;14.07;74.03;100066.41;5152547;27;19919;-62
2022/09/18 09:23:19;;;;;;;4.72;2.80;;;;;;;14.27;74.28;100066.66;5145738;27;20418;-61
2022/09/18 09:25:58;;;;;;;4.53;2.60;;;;;;;14.29;72.96;100059.53;5150635;27;20046;-61
2022/09/18 09:28:30;;;;;;;5.47;2.08;;;;;;;14.27;73.81;100056.25;5148229;27;20066;-61
2022/09/18 09:31:02;;;;;;;4.38;2.17;;;;;;;14.25;74.30;100053.00;5151555;27;20070;-61
2022/09/18 09:33:37;;;;;;;7.05;3.80;;;;;;;14.14;74.27;100051.81;5143144;27;20108;-61
2022/09/18 09:36:08;;;;;;;5.68;3.15;;;;;;;14.18;74.21;100053.56;5136202;27;20464;-61
2022/09/18 09:38:48;;;;;;;4.53;3.15;;;;;;;14.32;73.75;100063.63;5150053;27;20055;-61
2022/09/18 09:41:28;;;;;;;6.00;3.65;;;;;;;14.39;74.57;100052.66;5155128;27;20499;-61
2022/09/18 09:44:00;;;;;;;;;;;;;;;14.40;73.61;100043.06;5154551;27;20059;-61
2022/09/18 09:46:47;;;;;;;5.95;4.40;;;;;;;14.55;74.99;100047.13;5150306;27;19919;-61
2022/09/18 09:49:18;;;;;;;6.75;4.97;;;;;;;14.68;73.71;100042.38;5154613;27;20403;-63
2022/09/18 09:51:56;;;;;;;5.95;5.35;;;;;;;14.70;74.87;100040.03;5155620;27;20061;-61
2022/09/18 09:54:24;;;;;;;6.35;5.00;;;;;;;14.84;73.15;100039.66;5150518;27;20062;-61
2022/09/18 09:57:01;;;;;;;7.35;5.50;;;;;;;14.81;73.45;100042.00;5144797;27;20057;-62
2022/09/18 09:59:38;;;;;;;5.25;3.60;;;;;;;14.88;73.04;100040.59;5142178;27;20495;-62
2022/09/18 10:02:26;;;;;;;3.83;2.83;;;;;;;14.87;72.07;100042.59;5136523;27;20050;-62
2022/09/18 10:05:01;;;;;;;3.45;2.97;;;;;;;14.83;71.73;100041.66;5133288;27;20050;-61
2022/09/18 10:07:34;;;;;;;4.03;2.55;;;;;;;14.85;70.84;100042.13;5137911;27;20483;-62
2022/09/18 10:10:13;;;;;;;3.55;2.65;;;;;;;14.80;70.67;100036.75;5139536;27;20058;-62
2022/09/18 10:12:52;;;;;;;5.03;2.45;;;;;;;14.79;70.71;100049.94;5133985;27;20069;-62
2022/09/18 10:15:23;;;;;;;5.40;3.75;;;;;;;14.59;71.63;100046.16;5139914;27;20047;-62
2022/09/18 10:17:55;;;;;;;6.35;3.90;;;;;;;14.58;72.09;100038.88;5136597;27;20161;-61
2022/09/18 10:20:26;;;;;;;5.30;3.78;;;;;;;14.38;73.15;100034.19;5135546;27;20062;-62
2022/09/18 10:22:55;;;;;;;4.30;2.80;;;;;;;14.41;73.34;100030.72;5133268;27;20055;-62
2022/09/18 10:25:29;;;;;;;5.37;3.10;;;;;;;14.41;71.28;100034.31;5135106;27;20078;-61
2022/09/18 10:27:58;;;;;;;5.25;2.65;;;;;;;14.31;71.13;100029.19;5131718;27;20047;-62
2022/09/18 10:30:25;;;;;;;3.15;2.10;;;;;;;14.43;71.81;100036.78;5133613;27;20066;-60
2022/09/18 10:32:52;;;;;;;2.53;1.83;;;;;;;14.39;72.11;100025.44;5136213;27;20059;-62
2022/09/18 10:35:40;;;;;;;2.70;1.95;;;;;;;14.37;72.68;100026.97;5134204;27;20047;-62
2022/09/18 10:38:26;;;;;;;2.78;1.95;;;;;;;14.21;72.66;100019.28;5134452;27;20058;-63
2022/09/18 10:40:54;;;;;;;3.70;1.88;;;;;;;14.41;72.39;100027.91;5134183;27;20055;-62
2022/09/18 10:43:23;;;;;;;3.90;2.70;;;;;;;14.52;70.75;100022.63;5147593;27;20051;-63
2022/09/18 10:45:53;;;;;;;3.03;1.65;;;;;;;14.50;70.58;100025.78;5134341;27;20058;-63
2022/09/18 10:48:23;;;;;;;4.43;2.10;;;;;;;14.44;71.85;100027.19;5154055;27;20062;-63
2022/09/18 10:50:54;;;;;;;2.75;2.00;;;;;;;14.41;71.70;100027.91;5155225;27;20055;-61
2022/09/18 10:53:29;;;;;;;3.28;1.85;;;;;;;14.56;71.17;100026.41;5154437;27;20050;-61
2022/09/18 10:56:04;;;;;;;3.25;2.00;;;;;;;14.65;70.97;100029.06;5154726;27;20055;-61
2022/09/18 10:58:34;;;;;;;2.50;1.80;;;;;;;14.71;71.25;100025.66;5144109;27;20059;-61
2022/09/18 11:01:03;;;;;;;3.58;2.35;;;;;;;14.73;70.84;100011.31;5132877;27;20068;-62
2022/09/18 11:03:42;;;;;;;3.25;2.15;;;;;;;14.83;70.61;100010.81;5134065;27;20062;-61
2022/09/18 11:06:16;;;;;;;3.67;2.20;;;;;;;14.88;70.46;100004.94;5135114;27;20047;-59
2022/09/18 11:08:47;;;;;;;3.55;1.83;;;;;;;14.95;69.28;100009.94;5141506;27;20047;-62
2022/09/18 11:11:22;;;;;;;3.38;2.42;;;;;;;14.77;70.03;100015.03;5154383;27;20490;-63
2022/09/18 11:13:57;;;;;;;3.42;2.00;;;;;;;14.82;70.05;100014.78;5154074;27;20094;-61
2022/09/18 11:16:27;;;;;;;4.30;1.92;;;;;;;14.76;70.20;100010.59;5154254;27;20050;-61
2022/09/18 11:19:03;;;;;;;2.95;1.77;;;;;;;14.83;70.69;100016.44;5154272;27;20058;-61
2022/09/18 11:21:31;;;;;;;3.85;2.10;;;;;;;14.83;70.40;100010.81;5154120;27;20043;-61
2022/09/18 11:24:03;;;;;;;3.03;1.70;;;;;;;14.88;69.75;100013.34;5135777;27;20051;-61
2022/09/18 11:26:31;;;;;;;2.38;1.40;;;;;;;14.82;69.00;100009.16;5133198;27;20521;-61
2022/09/18 11:29:04;;;;;;;2.70;1.63;;;;;;;14.71;69.83;100020.06;5133368;27;20047;-63
2022/09/18 11:31:41;;;;;;;3.33;1.83;;;;;;;14.48;71.11;100014.09;5143795;27;20061;-63
2022/09/18 11:34:24;;;;;;;3.45;1.92;;;;;;;14.57;71.00;100014.84;5145767;27;20058;-61
2022/09/18 11:36:55;;;;;;;2.00;1.40;;;;;;;14.52;70.38;100020.66;5153850;27;20455;-61
2022/09/18 11:39:27;;;;;;;2.83;1.80;;;;;;;14.54;70.79;100012.69;5153874;27;20418;-61
2022/09/18 11:41:55;;;;;;;1.95;1.30;;;;;;;14.44;70.72;100009.56;5148957;27;20449;-61
2022/09/18 11:44:27;;;;;;;2.92;1.55;;;;;;;14.51;71.08;100007.81;5153894;27;20047;-62
2022/09/18 11:47:24;;;;;;;2.47;1.27;;;;;;;14.58;70.41;100010.06;5153812;27;20061;-62
2022/09/18 11:49:58;;;;;;;4.30;1.80;;;;;;;14.52;70.55;100006.63;5142806;27;20058;-62
2022/09/18 11:52:30;;;;;;;4.82;2.13;;;;;;;14.54;71.13;100009.91;5154163;27;20066;-62
2022/09/18 11:55:06;;;;;;;3.03;1.60;;;;;;;14.67;71.64;99998.69;5153871;27;20055;-62
2022/09/18 11:57:38;;;;;;;2.58;1.33;;;;;;;14.73;71.39;100000.09;5153912;27;20417;-62
2022/09/18 12:00:13;;;;;;;3.03;1.30;;;;;;;14.82;70.67;100004.41;5153889;27;20054;-61
2022/09/18 12:02:47;;;;;;;2.15;1.30;;;;;;;14.80;69.76;99994.69;5153847;27;20054;-61
2022/09/18 12:05:25;;;;;;;3.25;1.55;;;;;;;14.73;69.88;99991.69;5133856;27;20062;-61
2022/09/18 12:08:01;;;;;;;2.97;1.30;;;;;;;14.65;71.48;99989.81;5133285;28;20062;-62
2022/09/18 12:10:46;;;;;;;2.38;1.42;;;;;;;14.73;70.61;99991.69;5133229;27;20051;-63
2022/09/18 12:13:26;;;;;;;3.50;1.30;;;;;;;14.70;70.58;99986.75;5137240;27;20055;-62
2022/09/18 12:16:00;;;;;;;3.40;1.30;;;;;;;14.76;70.87;99979.75;5137278;27;20492;-62
2022/09/18 12:18:32;;;;;;;2.95;1.70;;;;;;;14.89;70.66;99980.50;5137090;27;20062;-61
2022/09/18 12:21:04;;;;;;;3.53;2.00;;;;;;;15.02;70.01;99985.75;5140200;27;20062;-61
2022/09/18 12:23:31;;;;;;;4.07;2.60;;;;;;;14.98;70.41;99984.81;5158102;27;20054;-61
2022/09/18 12:26:15;;;;;;;5.32;3.13;;;;;;;14.96;69.79;99991.97;5157778;27;20054;-61
2022/09/18 12:28:57;;;;;;;4.28;2.45;;;;;;;14.95;70.71;99987.50;5139984;27;20059;-61
2022/09/18 12:31:34;;;;;;;3.92;2.50;;;;;;;14.71;71.40;99985.59;5137042;27;20066;-61
2022/09/18 12:34:11;;;;;;;5.15;3.17;;;;;;;14.80;71.44;99987.13;5143402;27;20054;-61
2022/09/18 12:37:02;;;;;;;4.40;3.17;;;;;;;14.72;71.33;99993.69;5138087;27;20069;-61
2022/09/18 12:40:03;;;;;;;5.30;3.55;;;;;;;14.63;72.62;99989.38;5144589;27;20058;-62
2022/09/18 12:42:44;;;;;;;5.63;3.55;;;;;;;14.76;72.35;99982.53;5136526;27;20066;-62
2022/09/18 12:45:53;;;;;;;6.00;3.47;;;;;;;14.71;72.54;99971.59;5136414;27;20483;-62
2022/09/18 12:48:49;;;;;;;7.55;4.25;;;;;;;14.70;72.15;99979.19;5138265;27;20050;-62
2022/09/18 12:51:34;;;;;;;6.82;4.03;;;;;;;14.82;71.61;99973.56;5133365;27;20051;-62
2022/09/18 12:54:21;;;;;;;5.40;3.80;;;;;;;14.73;72.88;99972.06;5147809;27;20059;-61
2022/09/18 12:57:01;;;;;;;6.80;4.30;;;;;;;14.87;72.15;99971.66;5154892;27;20058;-62
2022/09/18 12:59:44;;;;;;;4.72;2.83;;;;;;;14.99;71.66;99975.25;5156907;27;20059;-63
2022/09/18 13:02:24;;;;;;;4.25;2.60;;;;;;;14.97;71.34;99966.38;5156828;27;20478;-62
2022/09/18 13:04:57;;;;;;;4.45;2.50;;;;;;;14.80;71.62;99972.25;5143274;27;20055;-63
2022/09/18 13:07:29;;;;;;;3.05;2.03;;;;;;;14.85;71.65;99960.00;5136190;27;20055;-63
2022/09/18 13:10:01;;;;;;;7.15;3.10;;;;;;;14.77;72.46;99961.75;5140460;27;20054;-62
2022/09/18 13:12:38;;;;;;;4.15;2.00;;;;;;;14.74;72.78;99956.84;5136128;27;20482;-62
2022/09/18 13:15:13;;;;;;;3.35;2.00;;;;;;;14.72;71.33;99954.44;5135863;27;20062;-63
2022/09/18 13:17:45;;;;;;;3.60;1.65;;;;;;;14.68;72.30;99958.28;5135710;27;20058;-62
2022/09/18 13:20:20;;;;;;;2.33;1.70;;;;;;;14.69;72.31;99987.94;5135670;27;20466;-62
2022/09/18 13:22:50;;;;;;;4.00;2.08;;;;;;;14.57;72.59;99988.78;5150655;27;20065;-62
2022/09/18 13:25:25;;;;;;;2.72;1.10;;;;;;;14.32;70.03;99997.22;5135463;27;20055;-63
2022/09/18 13:27:54;;;;;;;1.42;0.73;;;;;;;14.17;69.26;99990.34;5135588;27;20414;-62
2022/09/18 13:30:27;;;;;;;2.45;1.30;;;;;;;13.85;69.77;100006.06;5135790;27;20051;-62
2022/09/18 13:32:56;;;;;;;4.07;1.83;;;;;;;13.67;71.36;99991.47;5145867;27;20061;-62
2022/09/18 13:35:28;;;;;;;2.80;0.80;;;;;;;13.40;71.46;99990.13;5140798;27;20058;-62
2022/09/18 13:38:18;;;;;;;2.05;0.88;;;;;;;13.37;72.22;100000.00;5149463;27;20066;-62
2022/09/18 13:40:47;;;;;;;3.53;1.30;;;;;;;13.42;71.86;99992.56;5141014;27;20442;-62
2022/09/18 13:43:17;;;;;;;;;;;;;;;13.35;72.17;99985.53;5150504;27;20051;-62
2022/09/18 13:45:44;;;;;;;;;;;;;;;13.32;72.68;99977.03;5149677;27;20347;-62
2022/09/18 13:48:20;;;;;;;2.95;1.23;;;;;;;13.36;72.30;99976.00;5148610;27;19926;-62
2022/09/18 13:50:54;;;;;;;2.40;1.25;;;;;;;13.47;71.79;99979.16;5143760;27;20090;-62
2022/09/18 13:53:43;;;;;;;3.30;1.10;;;;;;;13.52;71.89;99972.53;5153672;27;20506;-62
2022/09/18 13:56:12;;;;;;;2.50;0.80;;;;;;;13.60;71.71;99968.81;5149867;27;20051;-62
2022/09/18 13:59:00;;;;;;;1.92;0.80;;;;;;;13.72;72.58;99973.63;5137979;27;20055;-61